Terminal Aerodrome Forecast
Issued by NWS

Home | Current Version | Previous Version | Text Only | Print | Product List | Glossary On
Versions: 1 2 3 4 5 6 7 8 9 10 11 12 13 14 15 16 17 18 19
000
FTUS44 KBMX 022300
TAFTOI
TAF
KTOI 022329Z 0300/0324 VRB04KT 3SM -DZ BR OVC008
     FM030400 VRB03KT 2SM BR OVC003
     FM031500 14004KT 5SM BR OVC008=

USA.gov is the U.S. government's official web portal to all federal, state and local government web resources and services.